Airfield :
LOGIN :

Register | Disclaimer

   EN    FR    IT 

 










Legend :    VFR   Marginal VFR   IFR   Intensive IFR   Very Intensive IFR
Visi :
Ceiling :
>= 8 km
>= 3000ft
5 to 8 km
1000 to 3000 ft
1500m to 5 km
500 to 1000 ft
800 to 1500m
200 to 500 ft
< 800m
< 200 ft
Symbols :   Thunderstorms  Fog  Heavy snow  Heavy precipitations  Wind > 20 kt
SIGMETs :     Misc.  Thunderstorms  Icing  Turbulence  Mountain Waves  Volcanic Ashes






- Airport Elevation : 359 ft
- IATA code : BVA


LFOB - Beauvais

CURRENT METAR :
  • 280600Z AUTO 12004KT CAVOK M01/M02 Q1018 NOSIG

EXPIRED METARs :
  • 280530Z AUTO 12004KT CAVOK M01/M02 Q1018 NOSIG
  • 280500Z AUTO 13003KT CAVOK M01/M02 Q1018 NOSIG
  • 280430Z AUTO 12003KT CAVOK M02/M03 Q1018 NOSIG
  • 280400Z AUTO VRB02KT CAVOK M02/M03 Q1018 NOSIG
  • 280330Z AUTO VRB02KT CAVOK M01/M03 Q1018 NOSIG

TAF TAF LFOB
Valid from the 28 at 06:00 until the 29 at 06:00 UTC


280500Z 2806/2906 14005KT CAVOK
BECMG 2810/2813 17017G27KT 4000 RA OVC013
BECMG 2813/2816 20012KT
TEMPO 2813/2821 2000 DZRA OVC004
BECMG 2821/2823 20020G30KT 9999 NSW BKN016
BECMG 2901/2903 19012KT
ATIS : +33 3 44 11 49 28



MET'MAP, your aeronautical weather chart ! - Copyright ORBIFLY December 2007 - Disclaimer

ORBIFLY MET'MAP TEAM :

Programming & Development : Alexandra Zaïnal
Concept & original design : Baudouin d'Aumeries
Assistance for programming : Marc-Olivier Méhu
Technical & hardware support : Manuel Goepfert

Contact : metmap@orbifly.com




SOURCES & CREDITS :

   NOAA